Yuma, AZ

5:08 AM MST on August 31, 2014 (GMT -0700)
Caballero Park | Change Station
CLOSE
Current Station
Personal Weather Station
Location: Yuma, AZ
Elevation: 200 ft
Nearby Weather Stations

Elev 200 ft 32.67 °N, 114.63 °W | Updated 2 minutes ago

Clear
Clear
85.1 °F
Feels Like 84 °F
N
3.1
Wind Variable Wind from SE

Today
High -- | Low -- °F
--% Chance of Precip.
Yesterday
High -- | Low -- °F
Precip. -- in
6:12 AM 7:04 PM
Waxing Crescent, 30% visible
Pressure 29.67 in
Visibility 10.0 miles
Clouds Clear
Heat Index 84 °F
Dew Point 56 °F
Humidity 37%
Rainfall 0.00 in
Snow Depth Not available.
UV 0 out of 12
Pollen 7.80 out of 12
Air Quality Not available.
Flu Activity Not available.
METAR KNYL 311157Z AUTO 15008KT 10SM CLR 31/09 A2968 RMK AO2 SLP045 T03110094 10328 20306 53000

More Conditions Fewer Conditions

Pressure 29.67 in
Visibility 10.0 miles
Clouds Clear
Heat Index 84 °F
Dew Point 56 °F
Humidity 37%
Rainfall 0.00 in
Snow Depth Not available.
UV 0 out of 12
Pollen 7.80 out of 12
Air Quality Not available.
Flu Activity Not available.
METAR KNYL 311157Z AUTO 15008KT 10SM CLR 31/09 A2968 RMK AO2 SLP045 T03110094 10328 20306 53000

More Conditions Fewer Conditions

10-Day Weather Forecast

Almanac

Astronomy

Aug. 31, 2014 Rise Set
Actual Time 6:12 AM MST 7:04 PM MST
Civil Twilight 5:47 AM MST 7:29 PM MST
Nautical Twilight 5:17 AM MST 7:59 PM MST
Astronomical Twilight 4:47 AM MST 8:29 PM MST
Moon 11:43 AM MST 10:43 PM MST
Length of Visible Light 13h 41m
Length of Day
12h 51m
Tomorrow will be 1m 56s shorter.
Waxing Crescent, 30% of the Moon is Illuminated
Today
Waxing Crescent
Sep 2
First Quarter
Sep 8
Full
Sep 15
Last Quarter
Sep 24
New

Today's Extremes

State Highs State Lows

Community

WunderPhotos

Upload Photos

1,748,853 photos uploaded!

Nearby

Snow Depth

Station Depth Elevation
White Horse Lake 0 in 7180 ft
Workman Creek 1 in 6900 ft
Snowslide Canyon 0 in 9730 ft
Heber 0 in 7640 ft
Wildcat 0 in 7850 ft

Earthquake Activity

City Distance Mag. Time & Date
No recent earthquake activity has been reported nearby.
Minimum magnitude displayed is 2.5.

Coastal Water Temperatures

Place Temperature
No Stations Reporting

Nearby Weather Stations